Time;durP1;ratioP1;P1;durP2;ratioP2;P2;SDS_P1;SDS_P2;PMS_P1;PMS_P2;Temp;Humidity;BMP_temperature;BMP_pressure;BME280_temperature;BME280_humidity;BME280_pressure;Samples;Min_cycle;Max_cycle;Signal;HPM_P1;HPM_P2
2023/09/23 00:01:39;;;;;;;1.85;1.70;;;16.30;99.90;;;;;;5105152;28;20080;-68
2023/09/23 00:04:06;;;;;;;2.40;1.77;;;16.30;99.90;;;;;;5106179;28;20034;-68
2023/09/23 00:06:31;;;;;;;3.30;1.55;;;16.30;99.90;;;;;;5105777;28;20028;-68
2023/09/23 00:08:57;;;;;;;2.47;1.40;;;16.30;99.90;;;;;;5104317;28;20035;-68
2023/09/23 00:11:23;;;;;;;5.88;1.65;;;16.30;99.90;;;;;;5106375;28;20061;-68
2023/09/23 00:13:49;;;;;;;1.60;1.45;;;16.30;99.90;;;;;;5106198;28;20032;-68
2023/09/23 00:16:15;;;;;;;2.40;1.67;;;16.40;99.90;;;;;;5099504;27;20244;-68
2023/09/23 00:18:41;;;;;;;5.43;1.63;;;16.40;99.90;;;;;;5106041;28;20444;-68
2023/09/23 00:21:08;;;;;;;4.93;1.65;;;16.40;99.90;;;;;;5103407;28;20491;-67
2023/09/23 00:23:34;;;;;;;1.63;0.98;;;16.40;99.90;;;;;;5106661;28;20183;-68
2023/09/23 00:26:01;;;;;;;2.45;1.48;;;16.40;99.90;;;;;;5105116;28;20043;-68
2023/09/23 00:28:30;;;;;;;2.90;1.35;;;16.40;99.90;;;;;;5105802;28;20057;-68
2023/09/23 00:31:10;;;;;;;1.48;1.17;;;16.40;99.90;;;;;;5106240;28;20491;-68
2023/09/23 00:33:40;;;;;;;1.40;1.30;;;16.30;99.90;;;;;;5106478;27;20035;-68
2023/09/23 00:36:08;;;;;;;3.55;1.50;;;16.40;99.90;;;;;;5104496;28;20023;-68
2023/09/23 00:38:38;;;;;;;2.65;1.40;;;16.30;99.90;;;;;;5103961;28;20035;-68
2023/09/23 00:41:06;;;;;;;1.42;1.30;;;16.30;99.90;;;;;;5106095;28;20016;-68
2023/09/23 00:43:35;;;;;;;2.03;1.33;;;16.30;99.90;;;;;;5105731;28;20031;-67
2023/09/23 00:46:05;;;;;;;2.95;1.33;;;16.30;99.90;;;;;;5104415;28;20122;-68
2023/09/23 00:48:43;;;;;;;2.83;1.08;;;16.40;99.90;;;;;;5104292;28;20055;-68
2023/09/23 00:51:10;;;;;;;1.77;1.35;;;16.40;99.90;;;;;;5101907;28;20031;-68
2023/09/23 00:53:39;;;;;;;3.67;1.30;;;16.30;99.90;;;;;;5104171;28;20053;-68
2023/09/23 00:56:08;;;;;;;1.58;1.10;;;16.30;99.90;;;;;;5104346;28;20031;-68
2023/09/23 00:58:36;;;;;;;2.03;1.23;;;16.30;99.90;;;;;;5105545;28;20035;-68
2023/09/23 01:01:05;;;;;;;2.55;1.48;;;16.30;99.90;;;;;;5105853;28;20084;-68
2023/09/23 01:03:31;;;;;;;2.08;1.30;;;16.30;99.90;;;;;;5105353;28;20028;-68
2023/09/23 01:06:05;;;;;;;1.80;1.38;;;16.30;99.90;;;;;;5101982;28;20031;-68
2023/09/23 01:08:31;;;;;;;3.60;1.40;;;16.20;99.90;;;;;;5105634;28;20054;-68
2023/09/23 01:10:56;;;;;;;1.73;1.35;;;16.20;99.90;;;;;;5105772;28;20113;-68
2023/09/23 01:13:29;;;;;;;1.10;1.00;;;16.10;99.90;;;;;;5101302;28;20031;-68
2023/09/23 01:15:56;;;;;;;1.73;1.30;;;16.10;99.90;;;;;;5100836;28;20036;-68
2023/09/23 01:18:23;;;;;;;1.40;1.10;;;16.00;99.90;;;;;;5100906;28;20035;-68
2023/09/23 01:20:54;;;;;;;1.80;1.33;;;16.00;99.90;;;;;;5105358;28;20027;-68
2023/09/23 01:23:20;;;;;;;2.58;1.13;;;16.00;99.90;;;;;;5102223;28;20031;-68
2023/09/23 01:25:46;;;;;;;1.50;1.20;;;15.90;99.90;;;;;;5103062;28;20035;-68
2023/09/23 01:28:12;;;;;;;1.45;1.17;;;15.90;99.90;;;;;;5105008;28;20031;-68
2023/09/23 01:30:40;;;;;;;2.38;1.50;;;15.90;99.90;;;;;;5105235;28;20112;-68
2023/09/23 01:33:08;;;;;;;1.92;1.20;;;15.80;99.90;;;;;;5098767;28;20032;-68
2023/09/23 01:35:34;;;;;;;2.45;1.80;;;15.80;99.90;;;;;;5105262;28;20909;-68
2023/09/23 01:38:02;;;;;;;1.63;1.30;;;15.80;99.90;;;;;;5103608;28;20040;-68
2023/09/23 01:40:30;;;;;;;1.92;1.50;;;15.80;99.90;;;;;;5104969;28;20544;-68
2023/09/23 01:42:57;;;;;;;1.80;1.20;;;15.80;99.90;;;;;;5103520;28;20130;-68
2023/09/23 01:45:25;;;;;;;1.20;0.98;;;15.80;99.90;;;;;;5103787;28;20023;-68
2023/09/23 01:47:52;;;;;;;3.08;1.30;;;15.70;99.90;;;;;;5096936;28;20047;-67
2023/09/23 01:50:19;;;;;;;1.67;1.50;;;15.70;99.90;;;;;;5105682;28;20027;-67
2023/09/23 01:52:45;;;;;;;1.77;1.50;;;15.70;99.90;;;;;;5104931;28;20030;-68
2023/09/23 01:55:16;;;;;;;2.13;1.70;;;15.80;99.90;;;;;;5103612;28;20033;-68
2023/09/23 01:57:42;;;;;;;2.85;1.30;;;15.70;99.90;;;;;;5105012;28;20502;-68
2023/09/23 02:00:15;;;;;;;1.73;1.25;;;15.80;99.90;;;;;;5103545;28;20916;-68
2023/09/23 02:02:42;;;;;;;2.40;1.20;;;15.80;99.90;;;;;;5103678;28;20031;-68
2023/09/23 02:05:08;;;;;;;2.00;1.50;;;15.80;99.90;;;;;;5104662;28;20058;-68
2023/09/23 02:07:34;;;;;;;2.85;1.52;;;15.90;99.90;;;;;;5104814;28;20502;-68
2023/09/23 02:10:00;;;;;;;2.20;1.50;;;15.90;99.90;;;;;;5103429;28;20024;-68
2023/09/23 02:12:26;;;;;;;4.13;1.52;;;15.90;99.90;;;;;;5103370;28;20679;-68
2023/09/23 02:14:53;;;;;;;3.28;1.30;;;15.90;99.90;;;;;;5103057;28;20019;-68
2023/09/23 02:17:20;;;;;;;1.27;1.17;;;15.90;99.90;;;;;;5103018;28;20030;-68
2023/09/23 02:19:51;;;;;;;1.27;1.17;;;15.90;99.90;;;;;;5096612;28;20036;-68
2023/09/23 02:22:19;;;;;;;2.15;1.13;;;16.00;99.90;;;;;;5103754;28;20114;-68
2023/09/23 02:24:46;;;;;;;2.70;1.20;;;16.00;99.90;;;;;;5104779;28;20072;-68
2023/09/23 02:27:12;;;;;;;1.88;1.42;;;16.00;99.90;;;;;;5104412;28;20020;-68
2023/09/23 02:29:40;;;;;;;4.32;1.13;;;16.10;99.90;;;;;;5102927;28;20040;-68
2023/09/23 02:32:06;;;;;;;1.60;1.38;;;16.10;99.90;;;;;;5103538;28;20039;-68
2023/09/23 02:34:32;;;;;;;0.90;0.90;;;16.10;99.90;;;;;;5102922;28;20035;-68
2023/09/23 02:36:58;;;;;;;1.02;0.90;;;16.10;99.90;;;;;;5100017;28;20400;-68
2023/09/23 02:39:24;;;;;;;1.25;0.98;;;16.10;99.90;;;;;;5100385;28;20511;-68
2023/09/23 02:41:50;;;;;;;1.30;0.90;;;16.10;99.90;;;;;;5104268;28;20110;-68
2023/09/23 02:44:18;;;;;;;1.60;1.05;;;16.10;99.90;;;;;;5106326;28;20020;-68
2023/09/23 02:46:54;;;;;;;2.22;0.90;;;16.10;99.90;;;;;;5108112;28;20111;-68
2023/09/23 02:49:19;;;;;;;4.60;1.40;;;16.10;99.90;;;;;;5103312;28;20742;-69
2023/09/23 02:51:45;;;;;;;3.03;0.90;;;16.10;99.90;;;;;;5108313;27;20126;-68
2023/09/23 02:54:17;;;;;;;1.00;0.85;;;16.10;99.90;;;;;;5107564;28;20399;-68
2023/09/23 02:56:47;;;;;;;1.27;0.90;;;16.10;99.90;;;;;;5107582;28;20555;-68
2023/09/23 02:59:15;;;;;;;1.50;1.20;;;16.20;99.90;;;;;;5102763;28;20073;-68
2023/09/23 03:01:48;;;;;;;1.10;0.70;;;16.20;99.90;;;;;;5082078;28;20513;-69
2023/09/23 03:04:19;;;;;;;2.70;0.98;;;16.20;99.90;;;;;;5107791;28;20038;-68
2023/09/23 03:06:49;;;;;;;1.52;0.90;;;16.30;99.90;;;;;;5107742;28;20446;-68
2023/09/23 03:09:19;;;;;;;2.42;0.90;;;16.30;99.90;;;;;;5107710;28;20460;-68
2023/09/23 03:12:00;;;;;;;1.02;0.70;;;16.20;99.90;;;;;;5095023;28;20027;-68
2023/09/23 03:14:40;;;;;;;0.88;0.63;;;16.20;99.90;;;;;;5097306;28;20035;-68
2023/09/23 03:17:07;;;;;;;0.95;0.80;;;16.10;99.90;;;;;;5108032;28;20024;-68
2023/09/23 03:19:33;;;;;;;1.00;0.60;;;16.20;99.90;;;;;;5107500;28;20032;-68
2023/09/23 03:22:00;;;;;;;1.67;0.75;;;16.20;99.90;;;;;;5106039;28;20119;-68
2023/09/23 03:24:29;;;;;;;1.88;0.85;;;16.20;99.90;;;;;;5105842;28;20047;-68
2023/09/23 03:26:58;;;;;;;3.65;0.68;;;16.20;99.90;;;;;;5107434;28;20011;-68
2023/09/23 03:29:29;;;;;;;0.93;0.50;;;16.20;99.90;;;;;;5105884;28;20212;-68
2023/09/23 03:31:56;;;;;;;1.70;0.80;;;16.20;99.90;;;;;;5105420;28;20027;-68
2023/09/23 03:34:22;;;;;;;0.70;0.60;;;16.20;99.90;;;;;;5105573;28;20072;-68
2023/09/23 03:36:47;;;;;;;0.90;0.57;;;16.20;99.90;;;;;;5105419;28;20080;-68
2023/09/23 03:39:13;;;;;;;1.08;0.55;;;16.20;99.90;;;;;;5105625;28;20039;-68
2023/09/23 03:41:42;;;;;;;2.10;0.77;;;16.10;99.90;;;;;;5106908;28;20058;-68
2023/09/23 03:44:08;;;;;;;0.65;0.50;;;16.10;99.90;;;;;;5106995;28;20030;-67
2023/09/23 03:46:34;;;;;;;1.23;0.90;;;16.10;99.90;;;;;;5106546;28;20039;-68
2023/09/23 03:49:00;;;;;;;0.90;0.80;;;16.10;99.90;;;;;;5105541;28;20567;-68
2023/09/23 03:51:26;;;;;;;0.63;0.63;;;16.20;99.90;;;;;;5107122;28;20110;-69
2023/09/23 03:53:52;;;;;;;1.25;0.60;;;16.10;99.90;;;;;;5106872;28;20023;-68
2023/09/23 03:56:24;;;;;;;1.02;0.65;;;16.00;99.90;;;;;;5103429;28;20945;-68
2023/09/23 03:58:55;;;;;;;3.35;0.63;;;16.00;99.90;;;;;;5098972;28;20027;-68
2023/09/23 04:01:24;;;;;;;1.02;0.68;;;16.00;99.90;;;;;;5105538;28;20055;-68
2023/09/23 04:03:53;;;;;;;0.63;0.60;;;15.90;99.90;;;;;;5107084;28;20389;-68
2023/09/23 04:06:19;;;;;;;0.63;0.50;;;15.90;99.90;;;;;;5103360;28;20027;-68
2023/09/23 04:08:47;;;;;;;1.20;0.50;;;15.90;99.90;;;;;;5104992;28;20499;-68
2023/09/23 04:11:16;;;;;;;1.35;0.63;;;15.90;99.90;;;;;;5106618;28;20038;-68
2023/09/23 04:13:44;;;;;;;2.13;0.60;;;15.80;99.90;;;;;;5106312;28;20130;-68
2023/09/23 04:16:11;;;;;;;0.93;0.85;;;15.80;99.90;;;;;;5106597;28;20035;-68
2023/09/23 04:18:37;;;;;;;2.20;0.95;;;15.80;99.90;;;;;;5101989;28;20032;-68
2023/09/23 04:21:03;;;;;;;0.52;0.43;;;15.80;99.90;;;;;;5106493;28;20026;-68
2023/09/23 04:23:29;;;;;;;1.33;0.60;;;15.80;99.90;;;;;;5106147;28;20117;-68
2023/09/23 04:25:56;;;;;;;1.35;0.47;;;15.80;99.90;;;;;;5106248;28;20056;-68
2023/09/23 04:28:22;;;;;;;0.80;0.50;;;15.80;99.90;;;;;;5105820;28;20089;-68
2023/09/23 04:30:53;;;;;;;0.55;0.50;;;15.70;99.90;;;;;;5105794;28;20032;-67
2023/09/23 04:33:20;;;;;;;1.85;0.70;;;15.70;99.90;;;;;;5102699;28;20122;-68
2023/09/23 04:35:47;;;;;;;2.28;0.45;;;15.70;99.90;;;;;;5106122;28;20035;-68
2023/09/23 04:38:15;;;;;;;1.63;0.60;;;15.60;99.90;;;;;;5102682;28;20036;-68
2023/09/23 04:40:42;;;;;;;1.27;0.68;;;15.70;99.90;;;;;;5106162;28;20114;-67
2023/09/23 04:43:10;;;;;;;0.40;0.40;;;15.70;99.90;;;;;;5105675;28;20425;-68
2023/09/23 04:45:36;;;;;;;1.40;0.57;;;15.60;99.90;;;;;;5106094;28;20028;-68
2023/09/23 04:48:06;;;;;;;0.82;0.40;;;15.60;99.90;;;;;;5105967;28;20130;-68
2023/09/23 04:50:33;;;;;;;0.40;0.40;;;15.60;99.90;;;;;;5106297;28;20027;-68
2023/09/23 04:52:59;;;;;;;1.75;0.80;;;15.50;99.90;;;;;;5096582;28;20019;-68
2023/09/23 04:55:26;;;;;;;1.08;0.30;;;15.50;99.90;;;;;;5105370;28;20028;-68
2023/09/23 04:57:51;;;;;;;1.50;0.43;;;15.50;99.90;;;;;;5105459;28;20110;-68
2023/09/23 05:00:19;;;;;;;0.65;0.45;;;15.40;99.90;;;;;;5104055;28;20406;-68
2023/09/23 05:02:48;;;;;;;0.52;0.52;;;15.40;99.90;;;;;;5105256;28;20110;-68
2023/09/23 05:05:14;;;;;;;1.60;0.60;;;15.40;99.90;;;;;;5105358;28;20111;-68
2023/09/23 05:07:39;;;;;;;0.35;0.35;;;15.40;99.90;;;;;;5101367;28;20576;-68
2023/09/23 05:10:06;;;;;;;0.63;0.38;;;15.30;99.90;;;;;;5105551;28;20039;-68
2023/09/23 05:12:32;;;;;;;0.55;0.40;;;15.30;99.90;;;;;;5102374;28;20043;-68
2023/09/23 05:14:59;;;;;;;1.00;0.40;;;15.30;99.90;;;;;;5104863;28;20123;-68
2023/09/23 05:17:27;;;;;;;1.23;0.43;;;15.30;99.90;;;;;;5105570;28;20072;-68
2023/09/23 05:19:53;;;;;;;0.50;0.38;;;15.20;99.90;;;;;;5103943;28;20112;-68
2023/09/23 05:22:19;;;;;;;2.28;0.47;;;15.30;99.90;;;;;;5105250;28;20027;-68
2023/09/23 05:24:47;;;;;;;1.63;0.80;;;15.20;99.90;;;;;;5104912;28;20024;-68
2023/09/23 05:27:16;;;;;;;1.52;0.57;;;15.20;99.90;;;;;;5103662;28;20028;-67
2023/09/23 05:29:44;;;;;;;1.00;0.40;;;15.20;99.90;;;;;;5105537;28;20050;-68
2023/09/23 05:32:10;;;;;;;1.10;0.40;;;15.20;99.90;;;;;;5105140;28;20035;-68
2023/09/23 05:34:39;;;;;;;1.00;0.43;;;15.20;99.90;;;;;;5101400;28;20058;-68
2023/09/23 05:37:06;;;;;;;0.65;0.50;;;15.10;99.90;;;;;;5105252;28;20030;-68
2023/09/23 05:39:34;;;;;;;1.88;0.52;;;15.10;99.90;;;;;;5105022;28;20030;-68
2023/09/23 05:42:02;;;;;;;2.17;0.50;;;15.20;99.90;;;;;;5105408;28;20073;-68
2023/09/23 05:44:27;;;;;;;0.95;0.47;;;15.20;99.90;;;;;;5104738;28;20698;-68
2023/09/23 05:46:53;;;;;;;1.08;0.98;;;15.20;99.90;;;;;;5105043;28;20035;-68
2023/09/23 05:49:19;;;;;;;1.90;0.68;;;15.10;99.90;;;;;;5104954;28;20036;-68
2023/09/23 05:51:45;;;;;;;0.43;0.40;;;15.20;99.90;;;;;;5104917;28;20019;-68
2023/09/23 05:54:11;;;;;;;1.58;0.50;;;15.20;99.90;;;;;;5104776;28;20057;-68
2023/09/23 05:56:37;;;;;;;0.85;0.82;;;15.20;99.90;;;;;;5103471;28;20085;-68
2023/09/23 05:59:05;;;;;;;1.55;0.52;;;15.20;99.90;;;;;;5098850;28;20114;-68
2023/09/23 06:01:33;;;;;;;0.88;0.60;;;15.20;99.90;;;;;;5105074;28;20024;-68
2023/09/23 06:03:58;;;;;;;1.73;0.60;;;15.20;99.90;;;;;;5101487;28;20030;-68
2023/09/23 06:06:24;;;;;;;0.50;0.40;;;15.10;99.90;;;;;;5104534;28;20036;-68
2023/09/23 06:08:50;;;;;;;0.85;0.63;;;15.20;99.90;;;;;;5104643;28;20043;-68
2023/09/23 06:11:17;;;;;;;6.82;0.68;;;15.20;99.90;;;;;;5104828;28;20035;-68
2023/09/23 06:13:43;;;;;;;1.50;0.68;;;15.20;99.90;;;;;;5099143;28;20028;-68
2023/09/23 06:16:09;;;;;;;0.98;0.52;;;15.20;99.90;;;;;;5101150;28;20032;-68
2023/09/23 06:18:34;;;;;;;1.17;0.75;;;15.10;99.90;;;;;;5106195;28;20039;-67
2023/09/23 06:21:04;;;;;;;1.42;0.55;;;15.10;99.90;;;;;;5101747;28;20042;-67
2023/09/23 06:23:31;;;;;;;1.90;0.82;;;15.20;99.90;;;;;;5108815;28;20657;-68
2023/09/23 06:26:01;;;;;;;2.05;0.60;;;15.30;99.90;;;;;;5108717;28;20023;-68
2023/09/23 06:28:27;;;;;;;1.92;0.60;;;15.30;99.90;;;;;;5108212;28;20162;-68
2023/09/23 06:30:52;;;;;;;1.00;0.60;;;15.40;99.90;;;;;;5108501;28;20145;-68
2023/09/23 06:33:19;;;;;;;1.50;0.40;;;15.30;99.90;;;;;;5107971;28;20156;-68
2023/09/23 06:35:45;;;;;;;0.40;0.40;;;15.20;99.90;;;;;;5108094;28;20036;-68
2023/09/23 06:38:12;;;;;;;1.88;0.70;;;15.30;99.90;;;;;;5108190;28;20036;-68
2023/09/23 06:40:38;;;;;;;0.73;0.43;;;15.30;99.90;;;;;;5108553;28;20372;-68
2023/09/23 06:43:04;;;;;;;0.60;0.57;;;15.20;99.90;;;;;;5108004;28;20020;-68
2023/09/23 06:45:30;;;;;;;2.05;0.70;;;15.20;99.90;;;;;;5107646;28;20164;-68
2023/09/23 06:47:56;;;;;;;0.82;0.50;;;15.30;99.90;;;;;;5107890;28;20110;-68
2023/09/23 06:50:22;;;;;;;1.08;0.50;;;15.40;99.90;;;;;;5108155;28;20030;-68
2023/09/23 06:52:48;;;;;;;1.08;0.45;;;15.40;99.90;;;;;;5103547;28;20039;-68
2023/09/23 06:55:13;;;;;;;2.63;0.60;;;15.40;99.90;;;;;;5104046;28;20039;-68
2023/09/23 06:57:39;;;;;;;1.30;0.50;;;15.50;99.90;;;;;;5106008;28;20118;-68
2023/09/23 07:00:07;;;;;;;1.60;0.65;;;15.50;99.90;;;;;;5107867;28;20035;-68
2023/09/23 07:02:33;;;;;;;1.45;0.70;;;15.60;99.90;;;;;;5107526;28;20475;-68
2023/09/23 07:05:00;;;;;;;1.23;0.38;;;15.60;99.90;;;;;;5107758;28;20028;-68
2023/09/23 07:07:26;;;;;;;0.43;0.30;;;15.70;99.90;;;;;;5107821;28;20514;-68
2023/09/23 07:09:52;;;;;;;2.40;0.88;;;15.90;99.90;;;;;;5107647;28;20557;-68
2023/09/23 07:12:18;;;;;;;1.73;0.60;;;16.00;99.90;;;;;;5107676;28;20130;-68
2023/09/23 07:14:43;;;;;;;2.50;0.80;;;16.10;99.90;;;;;;5107422;28;20059;-68
2023/09/23 07:17:09;;;;;;;2.85;0.52;;;16.20;99.90;;;;;;5107754;28;20092;-68
2023/09/23 07:19:35;;;;;;;0.90;0.55;;;16.20;99.60;;;;;;5107502;28;20372;-67
2023/09/23 07:22:02;;;;;;;1.38;0.80;;;16.10;99.60;;;;;;5107532;27;20537;-68
2023/09/23 07:24:29;;;;;;;0.57;0.57;;;16.10;99.90;;;;;;5102035;28;20070;-68
2023/09/23 07:26:59;;;;;;;1.13;0.52;;;16.20;99.60;;;;;;5106151;28;20666;-68
2023/09/23 07:29:25;;;;;;;0.95;0.60;;;16.20;99.10;;;;;;5103470;28;20764;-68
2023/09/23 07:31:55;;;;;;;1.45;0.70;;;16.30;99.20;;;;;;5107293;28;20159;-68
2023/09/23 07:34:21;;;;;;;0.93;0.50;;;16.40;99.00;;;;;;5105386;28;20035;-69
2023/09/23 07:36:47;;;;;;;0.40;0.40;;;16.60;99.10;;;;;;5106743;28;20039;-69
2023/09/23 07:39:12;;;;;;;1.67;0.45;;;16.80;98.60;;;;;;5104910;28;20028;-69
2023/09/23 07:41:39;;;;;;;0.95;0.40;;;16.90;97.90;;;;;;5106147;28;20098;-68
2023/09/23 07:44:05;;;;;;;0.88;0.50;;;16.90;98.10;;;;;;5106867;28;20057;-69
2023/09/23 07:46:31;;;;;;;1.13;0.50;;;16.90;97.70;;;;;;5106402;28;20504;-68
2023/09/23 07:48:57;;;;;;;0.57;0.45;;;17.00;97.70;;;;;;5106752;28;20032;-68
2023/09/23 07:51:23;;;;;;;0.45;0.32;;;17.00;97.40;;;;;;5099541;28;20046;-68
2023/09/23 07:53:51;;;;;;;1.00;0.40;;;17.00;97.70;;;;;;5098240;28;20036;-68
2023/09/23 07:56:17;;;;;;;0.73;0.50;;;17.00;97.50;;;;;;5102722;28;20130;-69
2023/09/23 07:58:43;;;;;;;0.93;0.60;;;16.90;96.90;;;;;;5106614;28;20114;-68
2023/09/23 08:01:09;;;;;;;0.85;0.45;;;17.00;96.40;;;;;;5106157;28;20035;-68
2023/09/23 08:03:34;;;;;;;1.75;0.52;;;17.00;96.40;;;;;;5106090;28;20070;-68
2023/09/23 08:06:00;;;;;;;0.65;0.45;;;17.00;96.00;;;;;;5106524;28;20027;-69
2023/09/23 08:08:26;;;;;;;0.85;0.50;;;17.00;96.60;;;;;;5106018;28;20020;-69
2023/09/23 08:10:53;;;;;;;0.90;0.50;;;17.10;96.00;;;;;;5105689;28;20106;-68
2023/09/23 08:13:20;;;;;;;1.63;0.80;;;17.10;96.10;;;;;;5104648;28;20028;-68
2023/09/23 08:15:49;;;;;;;0.55;0.40;;;17.10;96.00;;;;;;5106235;28;20030;-68
2023/09/23 08:18:15;;;;;;;1.70;0.50;;;17.10;95.80;;;;;;5105653;28;20171;-68
2023/09/23 08:20:40;;;;;;;3.22;0.75;;;17.10;96.30;;;;;;5103111;28;20061;-69
2023/09/23 08:23:07;;;;;;;1.10;0.60;;;17.20;96.00;;;;;;5104585;28;20049;-68
2023/09/23 08:25:34;;;;;;;0.98;0.80;;;17.20;96.00;;;;;;5105719;28;20020;-68
2023/09/23 08:28:01;;;;;;;2.55;0.95;;;17.20;96.00;;;;;;5103188;28;20044;-68
2023/09/23 08:30:27;;;;;;;1.00;0.80;;;17.00;95.80;;;;;;5103297;28;20047;-68
2023/09/23 08:32:56;;;;;;;1.08;0.80;;;17.00;96.30;;;;;;5104514;28;20089;-68
2023/09/23 08:35:22;;;;;;;0.55;0.52;;;17.00;96.50;;;;;;5106074;28;20115;-69
2023/09/23 08:37:48;;;;;;;2.25;0.80;;;17.00;96.00;;;;;;5101700;28;20451;-68
2023/09/23 08:40:16;;;;;;;0.80;0.70;;;17.10;96.30;;;;;;5103860;28;20066;-68
2023/09/23 08:42:42;;;;;;;1.80;0.80;;;17.20;95.80;;;;;;5104773;28;20195;-69
2023/09/23 08:45:09;;;;;;;1.75;0.80;;;17.30;95.80;;;;;;5104666;28;20712;-68
2023/09/23 08:47:38;;;;;;;1.05;0.63;;;17.40;95.20;;;;;;5097574;28;20028;-68
2023/09/23 08:50:08;;;;;;;1.00;0.80;;;17.50;95.70;;;;;;5105870;28;20023;-68
2023/09/23 08:52:34;;;;;;;1.17;0.70;;;17.60;95.00;;;;;;5100470;28;20061;-68
2023/09/23 08:55:03;;;;;;;0.90;0.60;;;17.70;95.30;;;;;;5105353;28;20032;-68
2023/09/23 08:57:30;;;;;;;1.42;0.90;;;17.90;94.90;;;;;;5098564;28;20035;-69
2023/09/23 08:59:56;;;;;;;0.80;0.80;;;18.40;94.20;;;;;;5103861;28;20035;-68
2023/09/23 09:02:25;;;;;;;1.10;1.00;;;18.80;93.70;;;;;;5105304;28;20024;-69
2023/09/23 09:04:55;;;;;;;1.27;1.00;;;19.00;93.60;;;;;;5096926;28;20031;-69
2023/09/23 09:07:34;;;;;;;1.20;0.90;;;19.10;93.50;;;;;;5101907;28;20072;-68
2023/09/23 09:10:00;;;;;;;0.95;0.90;;;19.10;92.40;;;;;;5101511;28;20055;-68
2023/09/23 09:12:26;;;;;;;0.82;0.73;;;19.00;92.40;;;;;;5105044;28;20038;-69
2023/09/23 09:14:52;;;;;;;1.48;0.90;;;19.00;92.50;;;;;;5105291;28;20031;-69
2023/09/23 09:17:21;;;;;;;1.17;1.08;;;18.90;92.70;;;;;;5105411;28;20092;-68
2023/09/23 09:19:47;;;;;;;1.25;1.10;;;18.80;92.60;;;;;;5105107;28;20505;-69
2023/09/23 09:22:15;;;;;;;1.20;1.10;;;18.60;92.90;;;;;;5105805;28;20114;-69
2023/09/23 09:24:40;;;;;;;1.17;1.08;;;18.60;93.20;;;;;;5097403;28;20027;-68
2023/09/23 09:27:14;;;;;;;1.30;1.20;;;18.50;93.60;;;;;;5105166;28;20023;-68
2023/09/23 09:29:43;;;;;;;1.88;1.30;;;18.40;93.30;;;;;;5101546;28;20106;-68
2023/09/23 09:32:10;;;;;;;2.95;1.45;;;18.30;93.50;;;;;;5105185;28;20042;-68
2023/09/23 09:34:47;;;;;;;2.53;0.98;;;18.30;93.80;;;;;;5104463;28;20591;-68
2023/09/23 09:37:14;;;;;;;2.45;1.40;;;18.40;94.00;;;;;;5104486;28;20034;-69
2023/09/23 09:39:50;;;;;;;1.20;1.10;;;18.60;94.40;;;;;;5104374;28;20032;-69
2023/09/23 09:42:27;;;;;;;2.22;1.67;;;18.80;93.30;;;;;;5105472;28;20059;-68
2023/09/23 09:44:55;;;;;;;1.55;1.10;;;18.90;92.90;;;;;;5097175;28;20027;-69
2023/09/23 09:47:22;;;;;;;1.40;1.30;;;18.80;92.20;;;;;;5104932;28;20027;-68
2023/09/23 09:49:54;;;;;;;2.08;1.30;;;18.80;92.50;;;;;;5103154;28;20499;-70
2023/09/23 09:52:22;;;;;;;2.10;1.00;;;18.90;92.40;;;;;;5101089;28;20028;-69
2023/09/23 09:54:53;;;;;;;1.10;1.02;;;19.00;92.70;;;;;;5108653;28;20053;-69
2023/09/23 09:57:23;;;;;;;2.35;1.45;;;19.10;93.00;;;;;;5108763;28;20069;-68
2023/09/23 09:59:52;;;;;;;2.53;1.25;;;19.30;92.60;;;;;;5100679;27;20690;-69
2023/09/23 10:02:21;;;;;;;2.13;1.40;;;19.40;91.50;;;;;;5097985;28;20024;-69
2023/09/23 10:04:49;;;;;;;1.20;1.10;;;19.40;91.40;;;;;;5098215;28;20487;-69
2023/09/23 10:07:16;;;;;;;1.42;1.33;;;19.40;91.40;;;;;;5108619;28;20027;-68
2023/09/23 10:09:53;;;;;;;1.92;1.52;;;19.40;91.40;;;;;;5108925;28;20100;-68
2023/09/23 10:12:32;;;;;;;1.83;1.02;;;19.50;91.70;;;;;;5108511;28;20032;-68
2023/09/23 10:14:58;;;;;;;3.42;1.17;;;19.50;91.50;;;;;;5101411;28;20039;-69
2023/09/23 10:17:31;;;;;;;1.08;1.00;;;19.50;90.00;;;;;;5108506;28;20027;-69
2023/09/23 10:19:58;;;;;;;1.13;1.02;;;19.40;91.00;;;;;;5107746;28;20023;-68
2023/09/23 10:22:28;;;;;;;1.67;0.98;;;19.60;91.00;;;;;;5108207;28;20076;-69
2023/09/23 10:25:04;;;;;;;1.20;0.90;;;19.90;89.70;;;;;;5103772;28;20028;-68
2023/09/23 10:27:32;;;;;;;0.88;0.85;;;20.00;87.10;;;;;;5108420;28;20126;-69
2023/09/23 10:29:59;;;;;;;0.88;0.70;;;20.30;88.10;;;;;;5108522;28;20036;-68
2023/09/23 10:32:26;;;;;;;1.65;1.15;;;20.40;87.40;;;;;;5105952;28;20024;-68
2023/09/23 10:34:55;;;;;;;0.82;0.80;;;20.30;87.40;;;;;;5108100;28;20019;-68
2023/09/23 10:37:32;;;;;;;3.15;0.80;;;20.20;88.70;;;;;;5105339;28;20035;-69
2023/09/23 10:40:17;;;;;;;1.02;0.85;;;20.20;87.10;;;;;;5101021;28;20127;-68
2023/09/23 10:42:46;;;;;;;1.42;0.80;;;20.50;87.80;;;;;;5108286;28;20460;-69
2023/09/23 10:45:14;;;;;;;2.60;1.05;;;21.10;86.20;;;;;;5108210;28;20027;-68
2023/09/23 10:47:43;;;;;;;0.80;0.60;;;21.30;84.60;;;;;;5104166;28;20030;-69
2023/09/23 10:50:09;;;;;;;1.00;0.88;;;21.40;85.70;;;;;;5107058;28;20468;-69
2023/09/23 10:52:36;;;;;;;1.00;0.90;;;21.20;84.50;;;;;;5108163;28;20578;-68
2023/09/23 10:55:02;;;;;;;0.77;0.70;;;21.10;83.90;;;;;;5107399;28;20016;-69
2023/09/23 10:57:28;;;;;;;1.90;0.88;;;20.80;83.00;;;;;;5104017;28;20032;-69
2023/09/23 10:59:55;;;;;;;1.10;0.70;;;20.50;84.80;;;;;;5107256;28;20054;-69
2023/09/23 11:02:22;;;;;;;0.93;0.70;;;20.20;85.50;;;;;;5107231;28;20034;-68
2023/09/23 11:04:49;;;;;;;0.90;0.52;;;20.00;86.90;;;;;;5105581;28;20036;-69
2023/09/23 11:07:16;;;;;;;0.70;0.60;;;19.90;86.50;;;;;;5100875;28;20519;-68
2023/09/23 11:09:45;;;;;;;0.63;0.63;;;19.70;87.00;;;;;;5106223;28;20514;-69
2023/09/23 11:12:15;;;;;;;0.80;0.68;;;19.60;87.60;;;;;;5107513;28;20154;-69
2023/09/23 11:14:43;;;;;;;0.70;0.70;;;19.70;89.10;;;;;;5106763;28;20138;-68
2023/09/23 11:17:25;;;;;;;1.83;0.65;;;19.70;89.30;;;;;;5107310;28;20372;-69
2023/09/23 11:19:55;;;;;;;0.55;0.50;;;19.80;89.70;;;;;;5099037;28;20116;-70
2023/09/23 11:22:28;;;;;;;0.90;0.65;;;19.80;87.80;;;;;;5105776;28;20054;-69
2023/09/23 11:24:55;;;;;;;1.10;0.80;;;19.70;87.80;;;;;;5103184;28;20035;-69
2023/09/23 11:27:22;;;;;;;4.28;0.80;;;19.60;88.40;;;;;;5107129;27;20030;-69
2023/09/23 11:29:49;;;;;;;0.75;0.75;;;19.50;89.30;;;;;;5103280;28;20038;-68
2023/09/23 11:32:22;;;;;;;1.10;0.65;;;19.50;89.20;;;;;;5107716;28;20122;-69
2023/09/23 11:34:49;;;;;;;0.68;0.68;;;19.50;90.70;;;;;;5105798;28;20070;-69
2023/09/23 11:37:14;;;;;;;0.63;0.60;;;19.60;90.00;;;;;;5104544;28;20761;-69
2023/09/23 11:39:40;;;;;;;1.05;0.73;;;19.70;89.00;;;;;;5106713;28;20112;-69
2023/09/23 11:42:06;;;;;;;1.83;0.80;;;19.90;88.90;;;;;;5107302;28;20023;-69
2023/09/23 11:44:34;;;;;;;0.75;0.70;;;20.00;87.90;;;;;;5101553;28;20039;-69
2023/09/23 11:47:00;;;;;;;1.25;0.60;;;20.30;88.40;;;;;;5107022;28;20074;-69
2023/09/23 11:49:26;;;;;;;3.53;0.60;;;20.60;86.60;;;;;;5107101;28;20035;-69
2023/09/23 11:51:52;;;;;;;2.15;0.68;;;20.70;85.70;;;;;;5104081;28;20128;-69
2023/09/23 11:54:17;;;;;;;2.72;0.80;;;20.60;85.00;;;;;;5106781;28;20031;-69
2023/09/23 11:56:43;;;;;;;1.48;0.40;;;20.60;86.10;;;;;;5106800;28;20550;-69
2023/09/23 11:59:09;;;;;;;0.65;0.45;;;20.50;83.90;;;;;;5106462;28;20459;-69
2023/09/23 12:01:35;;;;;;;1.30;0.70;;;20.40;84.20;;;;;;5106645;27;20590;-68
2023/09/23 12:04:01;;;;;;;0.88;0.68;;;20.30;83.40;;;;;;5104641;28;20032;-69
2023/09/23 12:06:29;;;;;;;0.68;0.52;;;20.20;84.70;;;;;;5104662;28;20110;-69
2023/09/23 12:08:55;;;;;;;1.67;0.60;;;20.10;83.70;;;;;;5099674;28;20024;-68
2023/09/23 12:11:21;;;;;;;0.93;0.50;;;20.10;83.60;;;;;;5105100;27;20445;-69
2023/09/23 12:13:48;;;;;;;1.75;0.70;;;20.10;82.10;;;;;;5105885;28;20112;-69
2023/09/23 12:16:13;;;;;;;2.25;0.63;;;20.00;81.90;;;;;;5105676;28;20031;-69
2023/09/23 12:18:39;;;;;;;1.00;0.50;;;20.00;82.50;;;;;;5105798;28;20039;-69
2023/09/23 12:21:06;;;;;;;0.85;0.60;;;20.00;84.70;;;;;;5104726;28;20043;-69
2023/09/23 12:23:32;;;;;;;2.25;0.60;;;20.00;82.20;;;;;;5103437;28;20030;-68
2023/09/23 12:25:58;;;;;;;0.80;0.68;;;20.10;83.20;;;;;;5106549;28;20027;-68
2023/09/23 12:28:24;;;;;;;2.42;0.52;;;20.20;83.40;;;;;;5106163;28;20479;-69
2023/09/23 12:30:50;;;;;;;0.47;0.40;;;20.20;83.80;;;;;;5106177;28;20023;-69
2023/09/23 12:33:15;;;;;;;1.27;0.50;;;20.20;84.00;;;;;;5105637;28;20024;-69
2023/09/23 12:35:41;;;;;;;2.75;0.80;;;20.30;83.10;;;;;;5105904;28;20122;-69
2023/09/23 12:38:07;;;;;;;0.55;0.50;;;20.20;83.20;;;;;;5105923;28;20041;-69
2023/09/23 12:40:33;;;;;;;1.02;0.75;;;20.30;82.20;;;;;;5105714;28;20027;-68
2023/09/23 12:42:59;;;;;;;1.00;0.90;;;20.30;82.10;;;;;;5105690;28;20034;-69
2023/09/23 12:45:24;;;;;;;0.85;0.63;;;20.30;81.20;;;;;;5105763;28;20059;-68
2023/09/23 12:47:50;;;;;;;2.78;0.80;;;20.20;82.70;;;;;;5105691;28;20023;-69
2023/09/23 12:50:17;;;;;;;1.15;0.50;;;20.20;81.50;;;;;;5105971;28;20028;-68